Time;durP1;ratioP1;P1;durP2;ratioP2;P2;SDS_P1;SDS_P2;PMS_P1;PMS_P2;Temp;Humidity;BMP_temperature;BMP_pressure;BME280_temperature;BME280_humidity;BME280_pressure;Samples;Min_cycle;Max_cycle;Signal;HPM_P1;HPM_P2
2022/05/09 00:01:04;;;;;;;19.65;10.57;;;14.30;99.90;;;;;;5049711;28;20025;-52
2022/05/09 00:03:30;;;;;;;14.75;9.10;;;14.40;99.90;;;;;;5048380;28;20024;-50
2022/05/09 00:05:59;;;;;;;14.32;8.57;;;14.30;99.90;;;;;;5048730;28;20036;-51
2022/05/09 00:08:26;;;;;;;18.42;8.73;;;14.30;99.90;;;;;;5048708;28;20017;-52
2022/05/09 00:10:51;;;;;;;27.30;9.50;;;14.20;99.90;;;;;;5048328;28;20037;-52
2022/05/09 00:13:17;;;;;;;18.50;9.27;;;14.10;99.90;;;;;;5048405;28;20187;-50
2022/05/09 00:15:43;;;;;;;14.90;8.98;;;14.00;99.90;;;;;;5048661;28;20029;-51
2022/05/09 00:18:08;;;;;;;16.13;9.88;;;14.00;99.90;;;;;;5045885;28;20502;-52
2022/05/09 00:20:34;;;;;;;18.80;9.93;;;14.00;99.90;;;;;;5048733;28;20079;-50
2022/05/09 00:23:00;;;;;;;16.92;8.93;;;14.00;99.90;;;;;;5051576;28;20061;-50
2022/05/09 00:25:27;;;;;;;16.58;9.18;;;14.00;99.90;;;;;;5052743;28;20025;-51
2022/05/09 00:27:53;;;;;;;18.00;9.90;;;14.00;99.90;;;;;;5052417;28;20025;-51
2022/05/09 00:30:19;;;;;;;17.25;9.40;;;13.90;99.90;;;;;;5052188;28;20033;-50
2022/05/09 00:32:46;;;;;;;22.20;10.77;;;13.90;99.90;;;;;;5052200;28;20028;-51
2022/05/09 00:35:13;;;;;;;15.73;9.32;;;13.90;99.90;;;;;;5052149;28;20033;-50
2022/05/09 00:37:39;;;;;;;18.75;10.35;;;13.90;99.90;;;;;;5052568;28;20028;-50
2022/05/09 00:40:08;;;;;;;17.13;9.13;;;14.00;99.90;;;;;;5052279;28;20032;-50
2022/05/09 00:42:34;;;;;;;14.95;10.18;;;13.90;99.90;;;;;;5051976;28;20353;-51
2022/05/09 00:45:02;;;;;;;16.88;9.27;;;13.90;99.90;;;;;;5052019;28;20546;-50
2022/05/09 00:47:28;;;;;;;14.18;8.85;;;13.90;99.90;;;;;;5051846;28;20049;-51
2022/05/09 00:49:57;;;;;;;17.40;10.13;;;13.80;99.90;;;;;;5051089;28;20029;-50
2022/05/09 00:52:47;;;;;;;17.27;9.05;;;13.90;99.90;;;;;;5051260;28;20048;-50
2022/05/09 00:55:21;;;;;;;16.83;9.40;;;13.80;99.90;;;;;;5051490;28;20021;-50
2022/05/09 00:58:09;;;;;;;15.95;9.52;;;13.70;99.90;;;;;;5052188;28;20495;-51
2022/05/09 01:00:34;;;;;;;16.15;8.82;;;13.70;99.90;;;;;;5051708;28;20017;-50
2022/05/09 01:03:06;;;;;;;15.27;9.48;;;13.60;99.90;;;;;;5051829;28;20021;-50
2022/05/09 01:05:32;;;;;;;16.80;9.15;;;13.60;99.90;;;;;;5051634;28;20033;-52
2022/05/09 01:07:59;;;;;;;15.35;9.43;;;13.50;99.90;;;;;;5048738;28;20021;-52
2022/05/09 01:10:30;;;;;;;15.57;9.52;;;13.60;99.90;;;;;;5050466;28;20036;-50
2022/05/09 01:13:03;;;;;;;16.05;9.13;;;13.60;99.90;;;;;;5051143;28;20029;-51
2022/05/09 01:15:30;;;;;;;19.58;10.27;;;13.30;99.90;;;;;;5051762;28;20393;-52
2022/05/09 01:17:55;;;;;;;17.33;10.40;;;13.50;99.90;;;;;;5051497;28;20025;-51
2022/05/09 01:20:21;;;;;;;17.58;10.52;;;13.30;99.90;;;;;;5051592;28;20040;-50
2022/05/09 01:22:47;;;;;;;19.23;9.30;;;13.40;99.90;;;;;;5051561;28;20021;-49
2022/05/09 01:25:15;;;;;;;17.60;10.35;;;13.50;99.90;;;;;;5051245;28;20064;-51
2022/05/09 01:27:44;;;;;;;19.25;11.10;;;13.40;99.90;;;;;;5051207;28;20036;-50
2022/05/09 01:30:10;;;;;;;20.95;11.15;;;13.50;99.90;;;;;;5051393;28;20469;-52
2022/05/09 01:32:35;;;;;;;20.48;11.38;;;13.50;99.90;;;;;;5051195;28;20137;-51
2022/05/09 01:35:21;;;;;;;17.17;10.10;;;13.50;99.90;;;;;;5050461;28;20663;-50
2022/05/09 01:38:02;;;;;;;18.45;10.02;;;13.40;99.90;;;;;;5048495;28;20025;-52
2022/05/09 01:40:28;;;;;;;13.48;8.52;;;13.40;99.90;;;;;;5050281;28;20082;-51
2022/05/09 01:42:54;;;;;;;16.58;8.60;;;13.50;99.90;;;;;;5050809;28;20017;-51
2022/05/09 01:45:20;;;;;;;15.13;9.07;;;13.50;99.90;;;;;;5051223;28;20554;-52
2022/05/09 01:50:30;;;;;;;14.82;8.32;;;13.50;99.90;;;;;;5050145;28;20087;-52
2022/05/09 01:52:56;;;;;;;14.05;8.82;;;13.50;99.90;;;;;;5050592;28;20468;-51
2022/05/09 01:55:22;;;;;;;16.60;9.07;;;13.50;99.90;;;;;;5051199;28;20048;-52
2022/05/09 01:57:49;;;;;;;16.00;9.00;;;13.40;99.90;;;;;;5051124;28;20032;-50
2022/05/09 02:00:15;;;;;;;16.88;9.52;;;13.30;99.90;;;;;;5050742;28;20130;-51
2022/05/09 02:02:41;;;;;;;19.15;9.95;;;13.30;99.90;;;;;;5050535;28;20720;-51
2022/05/09 02:05:07;;;;;;;16.98;9.38;;;13.40;99.90;;;;;;5050681;28;20427;-50
2022/05/09 02:07:34;;;;;;;16.23;8.88;;;13.40;99.90;;;;;;5050420;28;20070;-50
2022/05/09 02:09:59;;;;;;;15.60;8.98;;;13.20;99.90;;;;;;5050420;28;20033;-51
2022/05/09 02:12:26;;;;;;;17.67;10.60;;;13.10;99.90;;;;;;5050492;28;20484;-50
2022/05/09 02:14:52;;;;;;;19.85;10.75;;;13.00;99.90;;;;;;5051852;28;20029;-50
2022/05/09 02:17:18;;;;;;;18.13;10.55;;;13.10;99.90;;;;;;5051634;28;20041;-52
2022/05/09 02:19:43;;;;;;;15.73;9.95;;;13.20;99.90;;;;;;5051762;28;20063;-50
2022/05/09 02:22:11;;;;;;;16.95;10.50;;;13.20;99.90;;;;;;5050257;28;20032;-50
2022/05/09 02:24:37;;;;;;;17.00;9.90;;;13.20;99.90;;;;;;5052389;28;20123;-50
2022/05/09 02:27:03;;;;;;;17.33;10.23;;;13.20;99.90;;;;;;5045636;28;20498;-51
2022/05/09 02:29:31;;;;;;;16.98;8.65;;;13.10;99.90;;;;;;5047856;28;20025;-51
2022/05/09 02:31:57;;;;;;;14.98;8.90;;;13.00;99.90;;;;;;5050573;28;20500;-50
2022/05/09 02:34:23;;;;;;;15.65;8.80;;;13.00;99.90;;;;;;5051989;28;20052;-50
2022/05/09 02:36:49;;;;;;;15.13;9.00;;;13.00;99.90;;;;;;5049941;28;20388;-50
2022/05/09 02:39:15;;;;;;;14.25;9.07;;;13.00;99.90;;;;;;5050301;28;20024;-51
2022/05/09 02:41:41;;;;;;;14.40;8.98;;;13.00;99.90;;;;;;5049839;28;20460;-50
2022/05/09 02:44:07;;;;;;;18.75;9.63;;;13.10;99.90;;;;;;5049927;28;20025;-50
2022/05/09 02:46:33;;;;;;;13.98;8.73;;;13.10;99.90;;;;;;5049083;28;20333;-51
2022/05/09 02:49:00;;;;;;;12.23;8.73;;;13.10;99.90;;;;;;5050228;28;20483;-50
2022/05/09 02:51:27;;;;;;;20.08;9.73;;;13.20;99.90;;;;;;5049652;28;20044;-51
2022/05/09 02:53:54;;;;;;;;;;;13.20;99.90;;;;;;5047567;28;20376;-51
2022/05/09 02:56:20;;;;;;;15.40;8.35;;;13.10;99.90;;;;;;5048215;28;20249;-51
2022/05/09 02:58:46;;;;;;;13.77;9.07;;;13.00;99.90;;;;;;5049810;28;20031;-50
2022/05/09 03:01:12;;;;;;;15.43;8.75;;;13.00;99.90;;;;;;5047059;28;20017;-50
2022/05/09 03:06:21;;;;;;;15.07;9.07;;;12.90;99.90;;;;;;5048171;28;20395;-49
2022/05/09 03:08:47;;;;;;;15.50;9.18;;;12.80;99.90;;;;;;5050387;28;20029;-50
2022/05/09 03:11:13;;;;;;;20.70;9.15;;;12.80;99.90;;;;;;5049142;28;20481;-50
2022/05/09 03:13:39;;;;;;;15.20;8.75;;;12.80;99.90;;;;;;5046533;28;20028;-51
2022/05/09 03:16:05;;;;;;;13.88;8.60;;;12.80;99.90;;;;;;5049503;28;20021;-50
2022/05/09 03:18:31;;;;;;;16.58;9.68;;;12.80;99.90;;;;;;5047755;28;20444;-50
2022/05/09 03:20:57;;;;;;;15.05;9.05;;;12.80;99.90;;;;;;5049280;28;20378;-50
2022/05/09 03:23:24;;;;;;;14.88;8.95;;;12.80;99.90;;;;;;5051794;28;20028;-50
2022/05/09 03:25:50;;;;;;;13.05;9.00;;;12.70;99.90;;;;;;5049471;28;20385;-51
2022/05/09 03:28:24;;;;;;;15.30;9.13;;;12.80;99.90;;;;;;5048874;28;20377;-51
2022/05/09 03:30:51;;;;;;;15.02;8.35;;;12.80;99.90;;;;;;5048976;28;20037;-51
2022/05/09 03:33:17;;;;;;;;;;;12.90;99.90;;;;;;5049672;28;20021;-50
2022/05/09 03:35:43;;;;;;;15.20;9.25;;;12.90;99.90;;;;;;5049017;28;19911;-50
2022/05/09 03:38:10;;;;;;;11.80;7.50;;;12.90;99.90;;;;;;5049478;28;20095;-50
2022/05/09 03:40:35;;;;;;;18.87;8.53;;;13.00;99.90;;;;;;5048845;28;20493;-50
2022/05/09 03:43:02;;;;;;;15.18;9.10;;;13.00;99.90;;;;;;5048942;28;20335;-50
2022/05/09 03:45:28;;;;;;;16.55;9.05;;;13.00;99.90;;;;;;5048950;28;20017;-51
2022/05/09 03:47:54;;;;;;;12.25;8.73;;;13.00;99.90;;;;;;5049702;28;20052;-50
2022/05/09 03:50:20;;;;;;;15.68;9.73;;;13.00;99.90;;;;;;5050229;28;20044;-50
2022/05/09 03:52:47;;;;;;;12.70;8.27;;;13.00;99.90;;;;;;5049983;28;20035;-49
2022/05/09 03:55:13;;;;;;;16.27;8.02;;;13.00;99.90;;;;;;5049955;28;20025;-50
2022/05/09 03:57:50;;;;;;;16.80;8.07;;;13.00;99.90;;;;;;5049741;28;20025;-50
2022/05/09 04:00:18;;;;;;;13.43;8.27;;;13.10;99.90;;;;;;5050178;28;20384;-50
2022/05/09 04:02:44;;;;;;;12.00;8.18;;;13.10;99.90;;;;;;5049816;28;20025;-50
2022/05/09 04:05:15;;;;;;;15.13;8.95;;;13.10;99.90;;;;;;5049806;28;20086;-50
2022/05/09 04:07:43;;;;;;;17.13;9.27;;;13.00;99.90;;;;;;5049897;28;20017;-50
2022/05/09 04:10:09;;;;;;;13.50;8.73;;;12.90;99.90;;;;;;5049716;28;20125;-50
2022/05/09 04:12:35;;;;;;;14.98;9.07;;;13.00;99.90;;;;;;5049841;28;20021;-50
2022/05/09 04:17:59;;;;;;;15.25;9.60;;;13.00;99.90;;;;;;5015863;28;20082;-50
2022/05/09 04:20:27;;;;;;;17.77;8.75;;;12.80;99.90;;;;;;5050047;28;20041;-50
2022/05/09 04:22:54;;;;;;;;;;;12.70;99.90;;;;;;5055327;28;20481;-50
2022/05/09 04:25:20;;;;;;;15.32;9.95;;;12.60;99.90;;;;;;5069781;28;19908;-50
2022/05/09 04:27:45;;;;;;;15.68;9.43;;;12.80;99.90;;;;;;5069714;28;20365;-51
2022/05/09 04:30:12;;;;;;;17.08;10.10;;;12.90;99.90;;;;;;5069409;28;20036;-50
2022/05/09 04:32:40;;;;;;;20.52;10.75;;;13.00;99.90;;;;;;5069617;28;20082;-51
2022/05/09 04:35:11;;;;;;;16.60;10.57;;;13.00;99.90;;;;;;5069824;28;20028;-50
2022/05/09 04:37:39;;;;;;;16.40;11.23;;;13.10;99.90;;;;;;5069662;28;20555;-50
2022/05/09 04:40:06;;;;;;;20.20;11.73;;;13.20;99.90;;;;;;5069587;28;20048;-50
2022/05/09 04:42:32;;;;;;;16.75;9.88;;;13.20;99.90;;;;;;5069716;28;20029;-50
2022/05/09 04:44:57;;;;;;;14.88;8.82;;;13.20;99.90;;;;;;5069653;28;20039;-50
2022/05/09 04:47:23;;;;;;;15.68;11.13;;;13.20;99.90;;;;;;5055637;28;20045;-50
2022/05/09 04:49:48;;;;;;;17.10;9.93;;;13.30;99.90;;;;;;5049345;28;20037;-50
2022/05/09 04:52:15;;;;;;;13.77;9.10;;;13.30;99.90;;;;;;5049378;28;20037;-50
2022/05/09 04:54:40;;;;;;;14.05;8.85;;;13.40;99.90;;;;;;5049702;28;20040;-51
2022/05/09 04:57:06;;;;;;;18.55;9.52;;;13.50;99.90;;;;;;5049614;28;20025;-50
2022/05/09 04:59:32;;;;;;;14.85;8.93;;;13.50;99.90;;;;;;5048991;28;20025;-50
2022/05/09 05:01:57;;;;;;;24.48;10.25;;;13.60;99.90;;;;;;5049619;28;20484;-50
2022/05/09 05:04:23;;;;;;;14.05;8.52;;;13.60;99.90;;;;;;5049443;28;20052;-50
2022/05/09 05:06:49;;;;;;;14.43;8.88;;;13.60;99.90;;;;;;5049234;28;20029;-50
2022/05/09 05:09:14;;;;;;;15.27;8.35;;;13.70;99.90;;;;;;5050912;28;20053;-50
2022/05/09 05:11:40;;;;;;;15.40;8.50;;;13.80;99.90;;;;;;5053108;28;20025;-50
2022/05/09 05:14:06;;;;;;;16.50;7.90;;;13.80;99.90;;;;;;5052940;28;20032;-50
2022/05/09 05:19:16;;;;;;;12.75;8.10;;;14.00;99.90;;;;;;5053118;28;20071;-50
2022/05/09 05:21:43;;;;;;;15.77;8.73;;;14.00;99.90;;;;;;5052952;28;20388;-50
2022/05/09 05:24:09;;;;;;;18.42;9.20;;;14.10;99.90;;;;;;5068571;28;20119;-50
2022/05/09 05:26:35;;;;;;;16.80;9.30;;;14.10;99.90;;;;;;5073003;28;20040;-49
2022/05/09 05:29:00;;;;;;;13.95;9.25;;;14.20;99.90;;;;;;5073020;28;20074;-49
2022/05/09 05:31:27;;;;;;;15.02;8.18;;;14.20;99.90;;;;;;5072840;28;20387;-50
2022/05/09 05:33:53;;;;;;;20.92;8.90;;;14.30;99.90;;;;;;5072587;28;20017;-50
2022/05/09 05:36:20;;;;;;;16.88;8.63;;;14.30;99.90;;;;;;5072563;28;20499;-50
2022/05/09 05:38:51;;;;;;;14.48;8.75;;;14.30;99.90;;;;;;5072379;28;20016;-50
2022/05/09 05:44:01;;;;;;;13.00;7.40;;;14.30;99.90;;;;;;5231903;22;20072;-50
2022/05/09 05:46:27;;;;;;;16.00;8.43;;;14.50;99.90;;;;;;5051613;28;20025;-50
2022/05/09 05:48:52;;;;;;;11.93;6.90;;;14.50;99.90;;;;;;5051668;28;20028;-50
2022/05/09 05:51:21;;;;;;;21.00;7.97;;;14.60;99.90;;;;;;5051766;28;20028;-50
2022/05/09 05:53:47;;;;;;;16.42;8.02;;;14.60;99.90;;;;;;5051606;28;20035;-51
2022/05/09 05:56:13;;;;;;;16.00;8.18;;;14.60;99.90;;;;;;5051787;28;20100;-50
2022/05/09 05:58:39;;;;;;;12.05;6.65;;;14.70;99.90;;;;;;5051696;28;20092;-50
2022/05/09 06:01:05;;;;;;;17.90;7.75;;;14.70;99.90;;;;;;5051843;28;20033;-50
2022/05/09 06:03:31;;;;;;;15.23;7.60;;;14.80;99.90;;;;;;5051602;28;20107;-50
2022/05/09 06:05:57;;;;;;;13.35;6.78;;;14.90;99.90;;;;;;5051951;28;20025;-51
2022/05/09 06:08:23;;;;;;;13.23;7.47;;;15.00;99.90;;;;;;5051471;28;20013;-50
2022/05/09 06:10:48;;;;;;;13.38;6.68;;;15.00;99.90;;;;;;5051006;28;20555;-50
2022/05/09 06:13:15;;;;;;;14.30;7.00;;;15.10;99.90;;;;;;5050339;28;20056;-50
2022/05/09 06:15:41;;;;;;;15.95;6.95;;;15.20;99.90;;;;;;5051314;28;20033;-50
2022/05/09 06:18:09;;;;;;;12.07;7.13;;;15.30;99.90;;;;;;5051578;28;20104;-50
2022/05/09 06:20:40;;;;;;;14.57;8.00;;;15.20;99.90;;;;;;5051244;28;20120;-50
2022/05/09 06:23:08;;;;;;;12.82;6.43;;;15.40;99.90;;;;;;5051194;28;20027;-50
2022/05/09 06:25:34;;;;;;;13.88;5.80;;;15.40;99.90;;;;;;5051258;28;20017;-50
2022/05/09 06:28:05;;;;;;;11.80;6.82;;;15.50;99.90;;;;;;5051320;28;20021;-50
2022/05/09 06:30:31;;;;;;;13.25;6.25;;;15.60;99.90;;;;;;5050949;28;20646;-50
2022/05/09 06:32:58;;;;;;;13.30;6.40;;;15.70;99.90;;;;;;5051120;28;20025;-51
2022/05/09 06:35:26;;;;;;;15.47;6.67;;;15.70;99.90;;;;;;5051063;28;20353;-49
2022/05/09 06:38:00;;;;;;;14.85;8.00;;;15.80;99.90;;;;;;5050646;28;20106;-51
2022/05/09 06:40:28;;;;;;;12.70;6.85;;;15.90;99.90;;;;;;5051020;28;20048;-50
2022/05/09 06:42:55;;;;;;;12.75;6.82;;;15.90;99.90;;;;;;5050689;28;20041;-50
2022/05/09 06:45:22;;;;;;;14.80;6.70;;;16.00;99.90;;;;;;5050830;28;20032;-50
2022/05/09 06:47:49;;;;;;;13.50;6.20;;;16.00;99.90;;;;;;5050986;28;20025;-50
2022/05/09 06:50:17;;;;;;;18.48;6.03;;;16.10;99.90;;;;;;5050755;28;20037;-50
2022/05/09 06:52:42;;;;;;;11.57;5.60;;;16.20;99.90;;;;;;5050850;28;20029;-50
2022/05/09 06:55:10;;;;;;;12.10;5.63;;;16.20;99.90;;;;;;5050725;28;20478;-50
2022/05/09 06:57:40;;;;;;;11.25;5.22;;;16.30;99.90;;;;;;5050754;28;20057;-50
2022/05/09 07:00:08;;;;;;;10.40;5.25;;;16.40;99.90;;;;;;5050472;28;20032;-50
2022/05/09 07:02:34;;;;;;;13.18;5.60;;;16.50;99.90;;;;;;5050470;28;20045;-50
2022/05/09 07:05:05;;;;;;;12.77;5.35;;;16.50;99.90;;;;;;5050471;28;20048;-50
2022/05/09 07:07:31;;;;;;;8.65;4.63;;;16.60;99.90;;;;;;5050746;28;20468;-50
2022/05/09 07:09:57;;;;;;;11.00;5.22;;;16.60;99.90;;;;;;5050372;28;20120;-50
2022/05/09 07:12:23;;;;;;;10.85;5.30;;;16.70;99.90;;;;;;5050307;28;20476;-50
2022/05/09 07:14:49;;;;;;;15.85;5.55;;;16.70;99.90;;;;;;5050241;28;20029;-50
2022/05/09 07:17:14;;;;;;;12.07;5.68;;;16.90;99.90;;;;;;5049921;28;20033;-50
2022/05/09 07:19:41;;;;;;;10.63;5.10;;;16.90;99.90;;;;;;5039150;28;20076;-50
2022/05/09 07:22:06;;;;;;;13.52;6.18;;;16.90;99.90;;;;;;5039857;28;20031;-50
2022/05/09 07:24:32;;;;;;;14.20;6.43;;;17.10;99.90;;;;;;5040572;28;20514;-50
2022/05/09 07:26:58;;;;;;;16.85;6.93;;;17.10;99.90;;;;;;5039232;28;20021;-50
2022/05/09 07:29:23;;;;;;;12.30;6.60;;;17.20;99.90;;;;;;5038242;28;20021;-51
2022/05/09 07:31:49;;;;;;;12.10;6.20;;;17.10;99.90;;;;;;5036289;28;20626;-50
2022/05/09 07:34:15;;;;;;;11.38;6.20;;;17.10;99.90;;;;;;5039352;28;20021;-50
2022/05/09 07:36:41;;;;;;;15.25;5.57;;;17.30;99.90;;;;;;5044288;28;20041;-50
2022/05/09 07:39:08;;;;;;;12.10;6.20;;;17.50;99.90;;;;;;5049815;28;20531;-50
2022/05/09 07:41:34;;;;;;;11.65;5.35;;;17.70;99.90;;;;;;5049808;28;20527;-50
2022/05/09 07:44:00;;;;;;;12.27;4.72;;;17.80;99.90;;;;;;5049581;28;20045;-49
2022/05/09 07:46:26;;;;;;;8.90;4.95;;;17.80;99.90;;;;;;5049615;28;20029;-49
2022/05/09 07:48:52;;;;;;;14.18;4.70;;;17.80;99.90;;;;;;5049789;28;20032;-50
2022/05/09 07:51:19;;;;;;;7.30;3.30;;;17.90;99.90;;;;;;5049572;28;20040;-50
2022/05/09 07:53:45;;;;;;;7.35;3.78;;;18.10;99.90;;;;;;5049517;28;20028;-50
2022/05/09 07:56:11;;;;;;;9.90;3.83;;;18.10;99.90;;;;;;5049899;28;20041;-50
2022/05/09 07:58:37;;;;;;;9.45;4.10;;;18.20;99.90;;;;;;5049459;28;20144;-49
2022/05/09 08:01:04;;;;;;;7.30;3.60;;;18.30;99.90;;;;;;5049318;28;20047;-49
2022/05/09 08:03:33;;;;;;;7.18;2.88;;;18.50;99.90;;;;;;5049493;28;20419;-49
2022/05/09 08:06:02;;;;;;;11.23;4.47;;;18.60;98.20;;;;;;5049617;28;20690;-50
2022/05/09 08:08:29;;;;;;;9.80;4.68;;;18.70;99.90;;;;;;5049532;28;20040;-50
2022/05/09 08:10:56;;;;;;;10.27;3.60;;;18.70;99.10;;;;;;5049281;28;20392;-50
2022/05/09 08:13:22;;;;;;;11.45;3.88;;;19.00;99.90;;;;;;5049207;28;20036;-49
2022/05/09 08:15:49;;;;;;;9.60;3.55;;;18.90;96.70;;;;;;5049249;28;20059;-50
2022/05/09 08:18:15;;;;;;;8.85;4.47;;;19.20;98.00;;;;;;5049437;28;20021;-49
2022/05/09 08:20:45;;;;;;;10.35;3.60;;;19.10;93.20;;;;;;5049185;28;20480;-49
2022/05/09 08:23:15;;;;;;;13.13;4.07;;;18.90;90.40;;;;;;5041228;28;20033;-50
2022/05/09 08:25:43;;;;;;;19.65;4.07;;;18.80;90.00;;;;;;5029523;28;20025;-49
2022/05/09 08:28:10;;;;;;;14.10;4.03;;;18.60;89.10;;;;;;5029156;28;20017;-50
2022/05/09 08:30:37;;;;;;;10.93;3.63;;;19.00;95.10;;;;;;5029213;28;20107;-49
2022/05/09 08:33:12;;;;;;;8.85;3.05;;;19.40;93.20;;;;;;5029269;28;20061;-49
2022/05/09 08:35:38;;;;;;;9.77;3.20;;;19.40;91.70;;;;;;5029395;28;20111;-50
2022/05/09 08:38:04;;;;;;;10.02;3.53;;;19.30;91.40;;;;;;5029220;28;20489;-50
2022/05/09 08:40:35;;;;;;;9.13;3.22;;;19.30;91.00;;;;;;5029110;28;20035;-49
2022/05/09 08:43:27;;;;;;;10.60;3.40;;;19.40;89.20;;;;;;5029122;28;20584;-49
2022/05/09 08:46:21;;;;;;;6.13;2.67;;;19.30;84.30;;;;;;5032843;28;20113;-49
2022/05/09 08:49:11;;;;;;;8.25;2.88;;;19.40;84.40;;;;;;5049665;28;20052;-50
2022/05/09 08:52:04;;;;;;;9.50;3.15;;;19.40;86.00;;;;;;5052634;28;20036;-49
2022/05/09 08:54:30;;;;;;;7.15;2.88;;;19.40;83.60;;;;;;5052156;28;20036;-49
2022/05/09 08:57:01;;;;;;;7.88;2.95;;;19.60;86.70;;;;;;5051532;28;20419;-49
2022/05/09 08:59:33;;;;;;;6.82;2.92;;;19.60;84.00;;;;;;5051864;28;20055;-49
2022/05/09 09:02:22;;;;;;;9.95;2.83;;;19.50;83.00;;;;;;5051867;28;20036;-49
2022/05/09 09:04:58;;;;;;;6.93;2.80;;;19.50;85.30;;;;;;5050535;28;20029;-49
2022/05/09 09:07:24;;;;;;;7.03;2.83;;;19.90;89.40;;;;;;5050695;28;20773;-50
2022/05/09 09:10:04;;;;;;;8.35;2.60;;;19.50;80.50;;;;;;5051381;28;20120;-49
2022/05/09 09:12:57;;;;;;;6.78;3.03;;;19.60;87.70;;;;;;5051539;28;20031;-49
2022/05/09 09:15:53;;;;;;;10.63;2.83;;;19.60;84.50;;;;;;5002125;28;20029;-49
2022/05/09 09:18:31;;;;;;;8.30;2.40;;;19.40;81.40;;;;;;5050230;28;20094;-49
2022/05/09 09:21:09;;;;;;;8.90;3.25;;;19.50;84.80;;;;;;5049641;28;20013;-49
2022/05/09 09:23:37;;;;;;;;;;;19.40;84.40;;;;;;5050016;28;20511;-49
2022/05/09 09:26:12;;;;;;;6.95;2.40;;;19.60;81.70;;;;;;5049679;28;20310;-49
2022/05/09 09:28:49;;;;;;;7.57;2.40;;;19.70;83.90;;;;;;5047777;28;20029;-49
2022/05/09 09:31:27;;;;;;;5.55;2.33;;;20.00;75.70;;;;;;5036640;28;20045;-50
2022/05/09 09:34:13;;;;;;;15.18;2.50;;;20.30;72.90;;;;;;5041770;28;20021;-49
2022/05/09 09:36:50;;;;;;;5.38;2.20;;;20.50;76.80;;;;;;5041967;28;20030;-51
2022/05/09 09:39:19;;;;;;;6.50;2.08;;;20.80;74.20;;;;;;5035833;28;20028;-49
2022/05/09 09:41:46;;;;;;;4.40;1.80;;;20.70;73.20;;;;;;5039605;28;20424;-49
2022/05/09 09:44:15;;;;;;;8.95;2.42;;;20.80;69.80;;;;;;5040880;28;20037;-49
2022/05/09 09:47:02;;;;;;;4.57;1.73;;;20.70;67.40;;;;;;5041392;28;20029;-50
2022/05/09 09:49:28;;;;;;;7.22;2.10;;;20.70;70.70;;;;;;5040943;28;20013;-49
2022/05/09 09:51:54;;;;;;;7.15;2.58;;;21.10;75.90;;;;;;5040378;28;20574;-49
2022/05/09 09:54:33;;;;;;;8.32;2.20;;;21.20;64.40;;;;;;5044508;28;20029;-51
2022/05/09 09:57:28;;;;;;;3.45;1.75;;;21.30;69.00;;;;;;5045197;28;20018;-50
2022/05/09 09:59:54;;;;;;;10.95;2.60;;;21.10;68.50;;;;;;5042517;28;20017;-50
2022/05/09 10:02:28;;;;;;;9.32;3.10;;;21.50;69.20;;;;;;5036142;28;20025;-51
2022/05/09 10:05:08;;;;;;;14.63;2.90;;;21.70;67.00;;;;;;5034622;28;20385;-50
2022/05/09 10:07:35;;;;;;;13.52;2.67;;;21.40;62.40;;;;;;5031155;28;20029;-51
2022/05/09 10:10:10;;;;;;;7.28;2.30;;;21.00;64.20;;;;;;5031538;28;20037;-50
2022/05/09 10:12:39;;;;;;;6.63;2.80;;;21.20;66.00;;;;;;5031709;28;20037;-50
2022/05/09 10:15:40;;;;;;;8.43;2.72;;;21.50;64.10;;;;;;5031408;28;20369;-50
2022/05/09 10:18:23;;;;;;;7.18;2.55;;;21.60;64.60;;;;;;5031592;28;20087;-50
2022/05/09 10:20:51;;;;;;;9.27;2.47;;;21.30;61.50;;;;;;5037957;28;20035;-50
2022/05/09 10:26:21;;;;;;;93.32;67.72;;;22.10;65.20;;;;;;5045849;28;20055;-50
2022/05/09 10:28:53;;;;;;;15.05;4.38;;;22.20;64.60;;;;;;5049235;28;20028;-51
2022/05/09 10:31:26;;;;;;;7.93;2.83;;;22.60;62.50;;;;;;5049324;28;20539;-51
2022/05/09 10:33:59;;;;;;;11.60;2.83;;;22.80;61.80;;;;;;5049251;28;20056;-50
2022/05/09 10:36:31;;;;;;;10.45;2.95;;;22.70;57.60;;;;;;5050150;28;20074;-50
2022/05/09 10:39:06;;;;;;;8.52;2.63;;;22.50;57.20;;;;;;5050220;28;20100;-49
2022/05/09 10:41:40;;;;;;;10.95;2.55;;;22.50;60.40;;;;;;5033372;28;20024;-51
2022/05/09 10:44:34;;;;;;;11.43;2.88;;;22.70;57.30;;;;;;5050747;28;20413;-50
2022/05/09 10:47:22;;;;;;;6.75;2.75;;;22.70;58.60;;;;;;5051033;28;20049;-50
2022/05/09 10:49:58;;;;;;;6.83;2.67;;;23.10;57.10;;;;;;5051102;28;20029;-50
2022/05/09 10:52:55;;;;;;;7.97;2.75;;;23.30;53.60;;;;;;5050741;28;21041;-50
2022/05/09 10:55:34;;;;;;;5.38;2.20;;;23.60;57.30;;;;;;5050713;28;20025;-50
2022/05/09 10:58:12;;;;;;;6.60;2.10;;;23.10;52.70;;;;;;5050548;28;20075;-50
2022/05/09 11:00:46;;;;;;;7.00;2.08;;;22.90;53.70;;;;;;5050562;28;20021;-50
2022/05/09 11:03:36;;;;;;;10.98;3.22;;;22.60;55.50;;;;;;5050188;28;20029;-50
2022/05/09 11:06:08;;;;;;;7.40;2.53;;;22.50;53.80;;;;;;5049677;28;20092;-51
2022/05/09 11:08:58;;;;;;;8.02;2.20;;;22.30;54.70;;;;;;5050192;28;20472;-50
2022/05/09 11:11:38;;;;;;;7.00;2.50;;;22.20;57.40;;;;;;5050250;28;20143;-50
2022/05/09 11:14:45;;;;;;;8.50;2.50;;;22.50;53.30;;;;;;5050379;28;20163;-51
2022/05/09 11:17:49;;;;;;;10.25;2.42;;;22.90;54.10;;;;;;5013574;28;20033;-50
2022/05/09 11:20:37;;;;;;;6.30;2.50;;;23.00;52.90;;;;;;5050119;28;20395;-50
2022/05/09 11:23:37;;;;;;;9.07;3.00;;;23.20;54.10;;;;;;5043377;28;20021;-50
2022/05/09 11:26:05;;;;;;;8.43;3.13;;;23.60;50.20;;;;;;5030244;28;20025;-49
2022/05/09 11:28:49;;;;;;;9.48;3.35;;;23.60;51.10;;;;;;5030170;28;20034;-51
2022/05/09 11:31:46;;;;;;;34.70;24.20;;;23.60;52.10;;;;;;5030026;28;20041;-51
2022/05/09 11:34:29;;;;;;;9.20;3.67;;;24.00;51.80;;;;;;5037079;28;20722;-51
2022/05/09 11:37:22;;;;;;;7.85;2.40;;;24.10;50.30;;;;;;5049209;28;20040;-50
2022/05/09 11:40:21;;;;;;;10.20;2.67;;;24.40;50.00;;;;;;5048796;28;20021;-50
2022/05/09 11:43:31;;;;;;;10.00;2.65;;;23.80;48.60;;;;;;5048947;28;20060;-49
2022/05/09 11:46:38;;;;;;;6.00;2.05;;;24.30;50.60;;;;;;5021567;28;20028;-51
2022/05/09 11:49:21;;;;;;;10.30;2.83;;;24.40;50.10;;;;;;5049988;28;20117;-51
2022/05/09 11:52:00;;;;;;;10.95;2.33;;;24.40;48.20;;;;;;5049905;28;20037;-51
2022/05/09 11:54:48;;;;;;;11.27;2.42;;;24.80;49.60;;;;;;5048699;28;20041;-50
2022/05/09 11:57:29;;;;;;;5.88;2.50;;;25.00;43.80;;;;;;5049132;28;20037;-50
2022/05/09 11:59:57;;;;;;;7.88;2.67;;;25.10;44.20;;;;;;5049379;28;20401;-51
2022/05/09 12:02:45;;;;;;;7.78;2.63;;;25.20;46.30;;;;;;5050306;28;20043;-50
2022/05/09 12:05:26;;;;;;;9.38;2.70;;;25.50;46.30;;;;;;5050150;28;20033;-51
2022/05/09 12:08:12;;;;;;;8.45;2.45;;;25.60;44.20;;;;;;5050704;28;20079;-51
2022/05/09 12:10:40;;;;;;;8.65;2.20;;;25.60;44.10;;;;;;5050913;28;20114;-51
2022/05/09 12:13:14;;;;;;;4.40;2.17;;;25.70;46.90;;;;;;5050301;28;20035;-51
2022/05/09 12:15:48;;;;;;;5.82;2.10;;;26.20;47.70;;;;;;5050964;28;20055;-50
2022/05/09 12:18:46;;;;;;;10.65;2.35;;;25.50;44.70;;;;;;5050399;28;20064;-51
2022/05/09 12:21:21;;;;;;;7.18;2.85;;;25.10;45.50;;;;;;5016157;28;20041;-51
2022/05/09 12:23:50;;;;;;;11.50;2.92;;;25.20;46.10;;;;;;5050632;28;20029;-50
2022/05/09 12:26:34;;;;;;;7.40;2.22;;;25.10;45.60;;;;;;5050626;28;20354;-50
2022/05/09 12:29:31;;;;;;;7.35;1.92;;;25.70;46.60;;;;;;5050596;28;20025;-51
2022/05/09 12:32:00;;;;;;;6.72;2.00;;;25.70;45.40;;;;;;5050446;28;20048;-51
2022/05/09 12:34:41;;;;;;;5.25;2.00;;;25.90;46.60;;;;;;5050308;28;20531;-51
2022/05/09 12:37:09;;;;;;;8.65;2.88;;;25.90;44.20;;;;;;5050431;28;20032;-51
2022/05/09 12:39:43;;;;;;;6.68;2.40;;;26.00;46.80;;;;;;5050526;28;20052;-50
2022/05/09 12:42:23;;;;;;;10.85;3.10;;;26.20;43.70;;;;;;5049917;28;20017;-51
2022/05/09 12:44:51;;;;;;;7.25;1.95;;;26.20;44.90;;;;;;5050227;28;20472;-50
2022/05/09 12:47:30;;;;;;;8.15;2.47;;;26.40;42.10;;;;;;5050264;28;20028;-50
2022/05/09 12:50:07;;;;;;;11.30;4.00;;;26.40;41.10;;;;;;5050182;28;20052;-50
2022/05/09 12:52:37;;;;;;;9.02;2.13;;;26.20;42.80;;;;;;5049683;28;20073;-50
2022/05/09 12:57:48;;;;;;;8.82;2.92;;;26.60;44.50;;;;;;5049813;28;20031;-50
2022/05/09 13:00:19;;;;;;;6.13;2.63;;;26.30;43.00;;;;;;5040757;28;20057;-50
2022/05/09 13:02:46;;;;;;;7.10;2.20;;;26.60;44.50;;;;;;5033361;28;20083;-50
2022/05/09 13:05:13;;;;;;;7.72;2.33;;;26.40;42.30;;;;;;5047922;28;20499;-50
2022/05/09 13:08:00;;;;;;;7.40;2.35;;;25.50;42.50;;;;;;5049059;28;20063;-50
2022/05/09 13:10:27;;;;;;;10.77;2.53;;;25.20;43.70;;;;;;5029203;28;20373;-50
2022/05/09 13:12:58;;;;;;;;;;;25.60;45.80;;;;;;5029857;28;20018;-50
2022/05/09 13:15:25;;;;;;;11.35;3.33;;;25.60;42.90;;;;;;5028966;28;20355;-50
2022/05/09 13:18:01;;;;;;;;;;;25.70;43.20;;;;;;5041329;28;20041;-50
2022/05/09 13:20:30;;;;;;;7.65;2.60;;;25.70;42.70;;;;;;5048349;28;20276;-50